Jamestown, Michigan
Current Conditions -  °F | °C
As of 3:53 PM on Sunday 21 Dec 2014 (Local Time) from KBIV Reporting Station
Overcast Overcast  
Wind Chill: 29°   Ceiling: 3700
Heat Index: 36°   Visibility: 8mi
Dew Point: 28°   Wind: 9mph
Humidity: 73%   Direction: 150°SSE
Pressure: 30.15"   Gusts: NA
Location:  42.83°N, 85.84°W
Report Text: KBIV 212053Z AUTO 15008KT 8SM OVC037 02/M02 A3015 RMK AO2 SLP216 T00221022 56015
Loading
Personal Weather Stations






























Interactive Weather Map New forecast layout! Learn more

10-Day Weather Forecast

Advertisements
Track Severe Weather on mobile